createdAt,value
2022-09-28T00:05:07.092Z,99198.91
2022-09-28T00:08:54.644Z,99200.80
2022-09-28T00:12:41.563Z,99196.52
2022-09-28T00:16:29.019Z,99192.80
2022-09-28T00:20:14.709Z,99193.18
2022-09-28T00:24:00.800Z,99190.96
2022-09-28T00:27:41.211Z,99184.77
2022-09-28T00:31:28.872Z,99186.04
2022-09-28T00:34:59.676Z,99182.48
2022-09-28T00:38:47.931Z,99177.91
2022-09-28T00:42:35.862Z,99173.27
2022-09-28T00:46:16.725Z,99169.88
2022-09-28T00:50:19.254Z,99171.48
2022-09-28T00:54:07.287Z,99165.73
2022-09-28T00:57:55.336Z,99164.41
2022-09-28T01:03:48.149Z,99161.11
2022-09-28T01:07:20.698Z,99160.89
2022-09-28T01:11:04.274Z,99161.17
2022-09-28T01:14:53.220Z,99162.61
2022-09-28T01:18:47.983Z,99161.11
2022-09-28T01:22:43.141Z,99159.34
2022-09-28T01:26:32.048Z,99158.17
2022-09-28T01:30:35.830Z,99156.38
2022-09-28T01:34:33.704Z,99149.80
2022-09-28T01:38:19.190Z,99145.95
2022-09-28T01:42:06.881Z,99150.84
2022-09-28T01:45:42.138Z,99155.19
2022-09-28T01:49:40.830Z,99157.39
2022-09-28T01:53:15.678Z,99150.24
2022-09-28T01:56:50.582Z,99152.09
2022-09-28T02:00:20.260Z,99155.03
2022-09-28T02:04:15.542Z,99158.02
2022-09-28T02:08:19.413Z,99168.41
2022-09-28T02:12:14.192Z,99169.56
2022-09-28T02:15:54.174Z,99179.84
2022-09-28T02:19:34.079Z,99182.93
2022-09-28T02:23:26.436Z,99183.51
2022-09-28T02:27:14.933Z,99184.04
2022-09-28T02:31:04.748Z,99185.77
2022-09-28T02:34:36.275Z,99183.71
2022-09-28T02:38:23.816Z,99187.09
2022-09-28T02:42:40.325Z,99186.02
2022-09-28T02:46:28.027Z,99183.65
2022-09-28T02:50:21.450Z,99180.39
2022-09-28T02:54:18.945Z,99183.84
2022-09-28T02:58:12.342Z,99180.52
2022-09-28T03:02:10.625Z,99179.98
2022-09-28T03:06:18.228Z,99182.58
2022-09-28T03:10:09.551Z,99189.84
2022-09-28T03:13:58.506Z,99180.46
2022-09-28T03:17:47.636Z,99175.25
2022-09-28T03:21:35.113Z,99176.25
2022-09-28T03:25:24.181Z,99173.30
2022-09-28T03:29:12.895Z,99172.60
2022-09-28T03:33:01.840Z,99170.45
2022-09-28T03:36:50.406Z,99167.30
2022-09-28T03:40:39.473Z,99164.95
2022-09-28T03:44:28.510Z,99162.42
2022-09-28T03:48:21.740Z,99158.69
2022-09-28T03:52:11.760Z,99160.99
2022-09-28T03:55:59.931Z,99165.09
2022-09-28T03:59:49.321Z,99170.50
2022-09-28T04:03:38.466Z,99169.88
2022-09-28T04:07:30.893Z,99170.02
2022-09-28T04:11:25.513Z,99168.05
2022-09-28T04:15:17.811Z,99179.60
2022-09-28T04:19:10.676Z,99178.92
2022-09-28T04:23:03.344Z,99174.73
2022-09-28T04:26:57.721Z,99170.96
2022-09-28T04:30:49.345Z,99172.60
2022-09-28T04:43:34.227Z,99156.79
2022-09-28T04:47:23.532Z,99149.90
2022-09-28T04:51:24.057Z,99149.05
2022-09-28T04:55:15.808Z,99152.08
2022-09-28T04:59:09.392Z,99150.29
2022-09-28T05:03:00.660Z,99146.37
2022-09-28T05:06:53.812Z,99153.38
2022-09-28T05:10:46.053Z,99156.55
2022-09-28T05:14:47.804Z,99154.66
2022-09-28T05:18:52.148Z,99157.69
2022-09-28T05:22:41.504Z,99156.88
2022-09-28T05:26:31.357Z,99155.48
2022-09-28T05:30:20.572Z,99153.14
2022-09-28T05:34:12.583Z,99148.56
2022-09-28T05:38:01.992Z,99149.59
2022-09-28T05:41:51.214Z,99150.96
2022-09-28T05:45:40.469Z,99154.17
2022-09-28T05:49:29.514Z,99151.20
2022-09-28T05:53:21.181Z,99156.53
2022-09-28T05:57:10.802Z,99157.29
2022-09-28T06:00:59.943Z,99158.75
2022-09-28T06:04:48.971Z,99155.80
2022-09-28T06:08:38.034Z,99147.19
2022-09-28T06:12:29.669Z,99143.10
2022-09-28T06:16:18.989Z,99139.26
2022-09-28T06:20:10.895Z,99137.55
2022-09-28T06:24:08.949Z,99130.73
2022-09-28T06:27:59.918Z,99134.98
2022-09-28T06:31:50.247Z,99128.55
2022-09-28T06:35:39.916Z,99130.59
2022-09-28T06:39:29.317Z,99128.70
2022-09-28T06:43:18.630Z,99128.46
2022-09-28T06:47:05.998Z,99127.17
2022-09-28T06:51:03.801Z,99127.17
2022-09-28T06:54:55.647Z,99131.23
2022-09-28T06:58:45.282Z,99127.23
2022-09-28T07:02:35.009Z,99127.20
2022-09-28T07:06:28.293Z,99123.52
2022-09-28T07:10:21.290Z,99121.91
2022-09-28T07:14:17.312Z,99127.70
2022-09-28T07:18:15.362Z,99126.74
2022-09-28T07:22:05.682Z,99124.21
2022-09-28T07:25:55.645Z,99125.45
2022-09-28T07:29:45.286Z,99123.98
2022-09-28T07:33:40.290Z,99124.70
2022-09-28T07:37:33.315Z,99124.39
2022-09-28T07:41:32.397Z,99128.48
2022-09-28T07:45:21.955Z,99139.39
2022-09-28T07:49:12.529Z,99133.36
2022-09-28T07:53:17.622Z,99136.92
2022-09-28T07:57:10.783Z,99138.30
2022-09-28T08:01:10.563Z,99139.67
2022-09-28T08:05:00.395Z,99132.83
2022-09-28T08:08:50.575Z,99130.63
2022-09-28T08:12:40.762Z,99128.44
2022-09-28T08:20:33.906Z,99116.40
2022-09-28T08:23:56.167Z,99119.23
2022-09-28T08:27:31.624Z,99115.89
2022-09-28T08:31:06.733Z,99117.09
2022-09-28T08:34:53.126Z,99111.61
2022-09-28T08:39:00.242Z,99108.04
2022-09-28T08:42:49.537Z,99101.20
2022-09-28T08:46:32.090Z,99103.25
2022-09-28T08:50:12.159Z,99101.83
2022-09-28T08:53:56.360Z,99100.05
2022-09-28T08:57:50.270Z,99096.44
2022-09-28T09:01:39.715Z,99092.15
2022-09-28T09:05:28.894Z,99083.61
2022-09-28T09:09:13.951Z,99084.13
2022-09-28T09:16:59.852Z,99071.00
2022-09-28T09:21:13.967Z,99069.64
2022-09-28T09:24:39.162Z,99079.92
2022-09-28T09:28:34.018Z,99075.02
2022-09-28T09:32:38.231Z,99077.61
2022-09-28T09:36:39.602Z,99072.80
2022-09-28T09:40:51.148Z,99065.13
2022-09-28T09:44:47.297Z,99062.70
2022-09-28T09:48:32.049Z,99061.85
2022-09-28T09:56:22.374Z,99065.81
2022-09-28T10:00:20.657Z,99069.09
2022-09-28T10:04:17.732Z,99074.71
2022-09-28T10:08:06.966Z,99073.91
2022-09-28T10:11:52.782Z,99072.57
2022-09-28T10:15:34.971Z,99068.30
2022-09-28T10:18:44.603Z,99067.80
2022-09-28T10:22:33.840Z,99066.48
2022-09-28T10:26:24.759Z,99058.81
2022-09-28T10:30:19.166Z,99056.58
2022-09-28T10:34:10.739Z,99051.34
2022-09-28T10:41:53.354Z,99056.36
2022-09-28T10:45:54.239Z,99053.39
2022-09-28T10:49:58.289Z,99054.38
2022-09-28T10:53:52.959Z,99054.48
2022-09-28T10:57:42.435Z,99056.63
2022-09-28T11:01:41.248Z,99058.05
2022-09-28T11:05:34.515Z,99058.64
2022-09-28T11:09:29.777Z,99055.06
2022-09-28T11:13:20.615Z,99051.28
2022-09-28T11:17:12.880Z,99053.46
2022-09-28T11:21:05.515Z,99055.92
2022-09-28T11:25:00.779Z,99050.61
2022-09-28T11:28:56.121Z,99050.86
2022-09-28T11:32:46.136Z,99048.48
2022-09-28T11:36:54.996Z,99048.23
2022-09-28T11:40:46.305Z,99049.64
2022-09-28T11:44:41.489Z,99052.69
2022-09-28T11:48:35.386Z,99048.32
2022-09-28T11:52:27.760Z,99045.02
2022-09-28T11:56:22.985Z,99041.59
2022-09-28T12:00:21.589Z,99041.38
2022-09-28T12:04:22.999Z,99042.88
2022-09-28T12:08:15.181Z,99040.25
2022-09-28T12:12:23.932Z,99037.44
2022-09-28T12:20:46.378Z,99029.63
2022-09-28T12:24:35.978Z,99023.19
2022-09-28T12:28:26.657Z,99026.20
2022-09-28T12:32:03.008Z,99026.55
2022-09-28T12:35:57.892Z,99030.76
2022-09-28T12:39:58.331Z,99028.66
2022-09-28T12:43:59.483Z,99029.72
2022-09-28T12:47:47.455Z,99028.40
2022-09-28T12:51:19.821Z,99029.33
2022-09-28T12:55:12.078Z,99023.28
2022-09-28T12:59:04.170Z,99022.40
2022-09-28T13:02:55.599Z,99023.23
2022-09-28T13:07:09.289Z,99018.63
2022-09-28T13:10:58.731Z,99017.34
2022-09-28T13:15:00.436Z,99019.64
2022-09-28T13:18:43.742Z,99027.55
2022-09-28T13:22:34.445Z,99030.30
2022-09-28T13:26:24.224Z,99031.36
2022-09-28T13:30:09.289Z,99028.29
2022-09-28T13:34:07.685Z,99026.98
2022-09-28T13:38:09.430Z,99048.94
2022-09-28T13:42:12.110Z,99052.52
2022-09-28T13:45:53.351Z,99050.80
2022-09-28T13:49:41.784Z,99040.09
2022-09-28T13:53:35.794Z,99044.16
2022-09-28T13:57:33.837Z,99055.10
2022-09-28T14:01:26.255Z,99069.74
2022-09-28T14:06:00.859Z,99065.66
2022-09-28T14:09:41.875Z,99059.03
2022-09-28T14:13:27.891Z,99057.84
2022-09-28T14:17:20.517Z,99061.75
2022-09-28T14:21:00.538Z,99058.00
2022-09-28T14:24:38.910Z,99061.70
2022-09-28T14:28:20.712Z,99056.62
2022-09-28T14:32:10.114Z,99057.40
2022-09-28T14:35:57.426Z,99052.44
2022-09-28T14:39:38.666Z,99051.10
2022-09-28T14:42:37.365Z,99045.94
2022-09-28T14:46:02.236Z,99036.00
2022-09-28T14:49:57.470Z,99033.36
2022-09-28T14:53:51.902Z,99029.11
2022-09-28T14:57:55.402Z,99032.58
2022-09-28T15:01:32.823Z,99030.80
2022-09-28T15:05:24.729Z,99032.32
2022-09-28T15:09:18.066Z,99040.26
2022-09-28T15:13:07.975Z,99038.29
2022-09-28T15:16:51.247Z,99038.28
2022-09-28T15:20:31.907Z,99038.69
2022-09-28T15:24:23.848Z,99039.28
2022-09-28T15:28:19.903Z,99038.44
2022-09-28T15:32:05.757Z,99041.23
2022-09-28T15:35:57.614Z,99038.89
2022-09-28T15:39:57.442Z,99041.20
2022-09-28T15:43:44.993Z,99038.30
2022-09-28T15:47:37.164Z,99040.91
2022-09-28T15:51:05.720Z,99044.08
2022-09-28T15:55:01.992Z,99051.56
2022-09-28T15:58:45.860Z,99053.20
2022-09-28T16:02:31.222Z,99060.09
2022-09-28T16:06:32.868Z,99059.42
2022-09-28T16:10:38.132Z,99064.08
2022-09-28T16:14:19.714Z,99061.98
2022-09-28T16:18:11.039Z,99065.16
2022-09-28T16:22:06.360Z,99065.76
2022-09-28T16:25:58.546Z,99073.13
2022-09-28T16:29:49.893Z,99073.88
2022-09-28T16:33:44.320Z,99076.80
2022-09-28T16:37:44.059Z,99081.82
2022-09-28T16:41:29.954Z,99085.50
2022-09-28T16:45:01.296Z,99090.75
2022-09-28T16:48:45.866Z,99086.46
2022-09-28T16:52:27.313Z,99081.48
2022-09-28T16:56:18.459Z,99083.27
2022-09-28T17:00:09.502Z,99082.91
2022-09-28T17:03:46.911Z,99082.73
2022-09-28T17:07:21.870Z,99080.08
2022-09-28T17:11:22.563Z,99080.33
2022-09-28T17:15:03.173Z,99079.90
2022-09-28T17:18:38.474Z,99083.10
2022-09-28T17:22:17.173Z,99091.14
2022-09-28T17:26:11.788Z,99091.15
2022-09-28T17:30:02.647Z,99095.77
2022-09-28T17:33:48.731Z,99100.90
2022-09-28T17:37:19.120Z,99097.60
2022-09-28T17:41:19.378Z,99099.23
2022-09-28T17:45:09.820Z,99098.19
2022-09-28T17:48:53.335Z,99098.54
2022-09-28T17:51:53.585Z,99100.36
2022-09-28T17:55:34.039Z,99104.34
2022-09-28T17:58:33.822Z,99105.20
2022-09-28T18:01:39.205Z,99103.59
2022-09-28T18:04:54.178Z,99101.86
2022-09-28T18:07:40.165Z,99104.06
2022-09-28T18:11:13.328Z,99106.48
2022-09-28T18:14:50.076Z,99103.64
2022-09-28T18:17:52.749Z,99106.06
2022-09-28T18:21:09.375Z,99110.80
2022-09-28T18:24:49.052Z,99114.83
2022-09-28T18:28:31.581Z,99123.79
2022-09-28T18:32:10.663Z,99124.52
2022-09-28T18:35:23.381Z,99124.33
2022-09-28T18:38:52.784Z,99128.60
2022-09-28T18:42:26.574Z,99127.30
2022-09-28T18:46:02.190Z,99128.88
2022-09-28T18:49:35.451Z,99127.95
2022-09-28T18:52:50.456Z,99130.23
2022-09-28T18:56:36.519Z,99139.42
2022-09-28T18:59:59.322Z,99140.52
2022-09-28T19:03:32.099Z,99142.35
2022-09-28T19:07:12.029Z,99141.88
2022-09-28T19:11:02.213Z,99144.95
2022-09-28T19:14:33.475Z,99149.66
2022-09-28T19:18:12.146Z,99147.14
2022-09-28T19:21:35.949Z,99150.42
2022-09-28T19:25:18.067Z,99153.27
2022-09-28T19:29:24.943Z,99156.38
2022-09-28T19:33:22.772Z,99160.14
2022-09-28T19:36:52.160Z,99166.08
2022-09-28T19:40:55.718Z,99165.25
2022-09-28T19:44:24.043Z,99173.84
2022-09-28T19:48:19.099Z,99180.18
2022-09-28T19:51:51.558Z,99182.46
2022-09-28T19:56:09.205Z,99187.41
2022-09-28T20:00:00.872Z,99191.71
2022-09-28T20:03:47.591Z,99194.48
2022-09-28T20:07:37.913Z,99206.05
2022-09-28T20:10:58.494Z,99209.50
2022-09-28T20:14:47.922Z,99213.79
2022-09-28T20:18:38.125Z,99218.27
2022-09-28T20:22:28.164Z,99222.08
2022-09-28T20:26:18.780Z,99220.02
2022-09-28T20:30:06.603Z,99227.98
2022-09-28T20:33:56.800Z,99230.35
2022-09-28T20:37:52.787Z,99234.53
2022-09-28T20:41:43.076Z,99231.05
2022-09-28T20:45:35.458Z,99231.45
2022-09-28T20:49:25.188Z,99233.64
2022-09-28T20:53:16.553Z,99234.48
2022-09-28T20:57:05.791Z,99235.55
2022-09-28T21:00:55.059Z,99241.56
2022-09-28T21:04:54.737Z,99248.44
2022-09-28T21:08:43.881Z,99251.80
2022-09-28T21:12:34.180Z,99256.64
2022-09-28T21:16:24.652Z,99256.71
2022-09-28T21:20:13.776Z,99259.74
2022-09-28T21:24:05.821Z,99267.06
2022-09-28T21:27:54.923Z,99271.90
2022-09-28T21:32:09.301Z,99276.92
2022-09-28T21:36:02.079Z,99281.05
2022-09-28T21:39:51.364Z,99287.40
2022-09-28T21:43:40.546Z,99285.45
2022-09-28T21:47:31.142Z,99296.75
2022-09-28T21:51:23.399Z,99299.40
2022-09-28T21:55:12.401Z,99305.27
2022-09-28T21:59:02.527Z,99310.64
2022-09-28T22:02:51.705Z,99315.25
2022-09-28T22:06:40.999Z,99319.59
2022-09-28T22:10:32.136Z,99324.95
2022-09-28T22:14:21.494Z,99332.42
2022-09-28T22:18:13.114Z,99333.25
2022-09-28T22:22:07.558Z,99337.55
2022-09-28T22:25:57.703Z,99341.02
2022-09-28T22:29:50.014Z,99343.48
2022-09-28T22:33:39.412Z,99344.08
2022-09-28T22:37:29.334Z,99350.03
2022-09-28T22:41:29.563Z,99352.80
2022-09-28T22:45:20.310Z,99359.73
2022-09-28T22:49:11.383Z,99360.02
2022-09-28T22:53:00.578Z,99363.63
2022-09-28T22:56:49.729Z,99363.58
2022-09-28T23:00:39.007Z,99361.55
2022-09-28T23:04:34.906Z,99368.75
2022-09-28T23:08:25.059Z,99371.17
2022-09-28T23:12:18.019Z,99372.55
2022-09-28T23:16:07.611Z,99377.11
2022-09-28T23:19:56.766Z,99379.40
2022-09-28T23:23:49.086Z,99379.50
2022-09-28T23:27:39.307Z,99386.73
2022-09-28T23:31:35.163Z,99390.84
2022-09-28T23:35:25.096Z,99390.45
2022-09-28T23:39:15.585Z,99391.34
2022-09-28T23:43:06.075Z,99392.66
2022-09-28T23:46:57.573Z,99392.30
2022-09-28T23:50:46.722Z,99391.22
2022-09-28T23:54:35.568Z,99392.02
2022-09-28T23:58:24.738Z,99391.33
